Tiempo atmosférico en la estación meteorológica de Villaeles De Valdavia, Palencia (908 m.)



Fecha
DESCASC
Temp. máxima en grados centígrados (hora)
DESCASC
Temp. mínima en grados centígrados (hora)
DESCASC
Temp. media en grados centígrados
DESCASC
Racha de viento máxima en m/sg (hora)
DESCASC
Velocidad máxima media en intervalos de 10 minutos(hora)
DESCASC
Precipitaciones diarias en mm
DESCASC
Precipitaciones de 00:00 a 06:00 en mm
DESCASC
Precipitaciones de 06:00 a 12:00 en mm
DESCASC
Precipitaciones de 12:00 a 18:00 en mm
DESCASC
Precipitaciones de 18:00 a 24:00 en mm
DESCASC
19-12-2019 9.5 (22:40) 5.6 (09:50) 7.5 23.89 (22:30) 16.39 (20:00) 43.6 2.4 12.2 13 16
21-12-2019 12.3 (12:40) 4.3 (02:50) 8.3 30.28 (12:40) 16.11 (12:30) 8.8 0.2 3.2 1.4 4
22-12-2019 10.7 (14:00) 3.3 (23:50) 7 23.33 (01:40) 15.28 (15:00) 2 0 1.2 0.8 0
20-12-2019 9.2 (00:00) 4.4 (00:00) 6.8 21.67 (00:40) 13.06 (00:20) 21 7.6 0.4 10 3
16-01-2020 11 (14:30) 6 (00:00) 8.5 17.22 (15:30) 13.06 (14:00) 0.2 0.2 0 0 0
15-01-2020 8.5 (16:20) 4.6 (00:00) 6.5 15.28 (11:50) 10.28 (11:50) 0.4 0.2 0.2 0 0
17-01-2020 7.8 (14:40) 0.3 (00:00) 4.1 14.72 (00:40) 9.17 (00:10) 2.2 1.4 0.8 0 0
14-01-2020 6.1 (16:10) -0.1 (00:00) 3 12.5 (23:59) 7.5 (23:59) 0 0 0 0 0
13-01-2020 1.4 (15:20) -5.6 (-00:0) -2.1 8.61 (17:40) 5.28 (16:10) 0 0 0 0 0
09-01-2020 8.3 (14:30) -2.1 (-00:0) 3.1 9.17 (22:30) 5.28 (15:10) 0 0 0 0 0
04-01-2020 6.8 (15:50) -1.5 (-00:0) 2.7 6.67 (19:20) 4.72 (19:20) 0 0 0 0 0
23-12-2019 6.6 (15:30) -0.3 (00:00) 3.1 5.83 (16:20) 4.44 (16:00) 0 0 0 0 0
10-01-2020 7.3 (15:20) -2.3 (-00:0) 2.5 6.94 (20:20) 4.44 (02:10) 0 0 0 0 0
25-12-2019 13.7 (15:30) 2.3 (00:00) 8 5.28 (14:50) 4.17 (14:50) 0 0 0 0 0
24-12-2019 9.1 (13:40) 5.8 (00:00) 7.5 6.11 (12:40) 3.61 (05:40) 0 0 0 0 0
02-01-2020 7.3 (15:40) -4.2 (-00:0) 1.6 4.44 (15:40) 3.33 (15:30) 0 0 0 0 0
07-01-2020 8.7 (16:40) -4.7 (-00:0) 2 4.17 (14:20) 3.33 (12:50) 0 0 0 0 0
26-12-2019 6.2 (14:00) -1.3 (-00:0) 2.4 5.28 (07:30) 3.33 (07:30) 0 0 0 0 0
06-01-2020 1.5 (15:50) -4.1 (-00:0) -1.3 3.89 (16:00) 3.06 (16:10) 0 0 0 0 0
05-01-2020 13.1 (16:10) -2.8 (-00:0) 5.2 5 (00:50) 3.06 (13:10) 0 0 0 0 0
28-12-2019 12.2 (15:20) -2.6 (-00:0) 4.8 5.56 (09:00) 3.06 (08:50) 0 0 0 0 0
11-01-2020 8.4 (15:50) -4.3 (-00:0) 2 4.72 (03:00) 2.78 (03:00) 0 0 0 0 0
27-12-2019 11 (16:20) -4.5 (-00:0) 3.3 5.28 (22:10) 2.78 (22:10) 0 0 0 0 0
01-01-2020 10.5 (15:50) -4.4 (-00:0) 3 3.61 (15:50) 2.5 (17:10) 0 0 0 0 0
31-12-2019 12.9 (15:40) -3.2 (-00:0) 4.8 4.17 (03:40) 2.5 (15:40) 0 0 0 0 0
29-12-2019 13.5 (16:40) -2.1 (-00:0) 5.7 4.44 (04:40) 2.5 (03:40) 0 0 0 0 0
08-01-2020 14.1 (15:40) -2.6 (-00:0) 5.8 3.89 (08:20) 2.22 (11:00) 0 0 0 0 0
03-01-2020 3.6 (17:20) -2.8 (-00:0) 0.4 3.89 (11:30) 2.22 (11:30) 0.8 0 0 0 0.8
12-01-2020 5.9 (16:20) -4.3 (10:00) 0.8 3.33 (15:40) 2.22 (15:30) 0 0 0 0 0
30-12-2019 -- (--) -- (--) -- -- (--) -- (--) -- 0 0 0 --

Gráficas

Temp. máximas Temp. mínimas Temp. medias Precipitaciones Rachas de viento máximas Velocidades máximas media en intervalos de 10 minutos

Datos horarios

Fecha y hora oficial Temperatura (ºC) Velocidad del viento (km/h) Dirección del viento Racha (km/h) Dirección de racha Precipitación (mm) Presión (hPa) Tendencia (hPa) Humedad (%)
2020-01-17 23:00:00 0.7 3 Oeste 8 Nordeste 0 -- -- 91
2020-01-17 22:00:00 0.8 3 Nordeste 6 Nordeste 0 -- -- 89
2020-01-17 21:00:00 2 2 Noroeste 10 Noroeste 0 -- -- 86
2020-01-17 20:00:00 2.1 3 Sudoeste 10 Sudeste 0 -- -- 82
2020-01-17 19:00:00 3.2 3 Sudeste 21 Oeste 0 -- -- 77
2020-01-17 18:00:00 4.9 13 Sudoeste 35 Oeste 0 -- -- 67
2020-01-17 17:00:00 5.7 19 Oeste 31 Oeste 0 -- -- 66
2020-01-17 16:00:00 6.2 24 Oeste 40 Oeste 0 -- -- 67
2020-01-17 15:00:00 7.5 21 Oeste 35 Oeste 0 -- -- 61
2020-01-17 14:00:00 7 23 Oeste 40 Oeste 0 -- -- 70
2020-01-17 13:00:00 6.4 26 Oeste 42 Oeste 0 -- -- 75
2020-01-17 12:00:00 5.8 26 Oeste 41 Oeste 0 -- -- 79
2020-01-17 11:00:00 4.8 27 Oeste 42 Oeste 0 -- -- 83
2020-01-17 10:00:00 3.3 23 Oeste 35 Oeste 0 -- -- 87
2020-01-17 09:00:00 2.9 17 Oeste 28 Sudoeste 0 -- -- 90
2020-01-17 08:00:00 3.6 17 Oeste 23 Oeste 0 -- -- 93
2020-01-17 07:00:00 4.2 20 Oeste 35 Oeste 0.8 -- -- 93
2020-01-17 06:00:00 4.3 15 Sudoeste 26 Sudoeste 0 -- -- 95
2020-01-17 05:00:00 4.6 20 Sudoeste 41 Sudoeste 1.4 -- -- 94
2020-01-17 04:00:00 5.4 30 Sudoeste 48 Sudoeste 0 -- -- 95
2020-01-17 03:00:00 5.6 28 Sudoeste 44 Sudoeste 0 -- -- 94
2020-01-17 02:00:00 5.8 31 Sudoeste 41 Sudoeste 0 -- -- 93
2020-01-17 01:00:00 6 27 Sudoeste 53 Sudoeste 0 -- -- 94
2020-01-17 00:00:00 6.3 31 Sudoeste 56 Sudoeste 0 -- -- 90
2020-01-16 23:00:00 6.7 26 Sudoeste 50 Sudoeste 0 -- -- 87
2020-01-16 22:00:00 6.8 23 Sudoeste 37 Sudoeste 0 -- -- 84
2020-01-16 21:00:00 7.2 23 Sudoeste 37 Sudoeste 0 -- -- 80
2020-01-16 20:00:00 7.2 26 Sudoeste 41 Sudoeste 0 -- -- 78
2020-01-16 19:00:00 7.5 27 Sudoeste 38 Sudoeste 0 -- -- 74
2020-01-16 18:00:00 7.9 29 Sudoeste 58 Sudoeste 0 -- -- 72
2020-01-16 17:00:00 9.3 31 Sudoeste 56 Sudoeste 0 -- -- 71
2020-01-16 16:00:00 10.6 32 Sudoeste 62 Sur 0 -- -- 68
2020-01-16 15:00:00 10.4 41 Sudoeste 81 Sudoeste 0 -- -- 71
2020-01-16 14:00:00 10.8 47 Sudoeste 59 Sudoeste 0 -- -- 74
2020-01-16 13:00:00 9.3 37 Sudoeste 54 Sudoeste 0 -- -- 85
2020-01-16 12:00:00 7.7 24 Sudoeste 37 Sudoeste 0 -- -- 95
2020-01-16 11:00:00 7.3 19 Sur 31 Sudoeste 0 -- -- 97
2020-01-16 10:00:00 6.5 24 Sudoeste 30 Sur 0 -- -- 98
2020-01-16 09:00:00 6.1 18 Sur 24 Sur 0 -- -- 98
2020-01-16 08:00:00 6 16 Sudoeste 23 Sur 0 -- -- 97
2020-01-16 07:00:00 6.1 9 Sur 21 Sudoeste 0 -- -- 97
2020-01-16 06:00:00 6.2 13 Sur 19 Sudoeste 0.2 -- -- 97
2020-01-16 05:00:00 6.4 14 Sur 28 Sudoeste 0 -- -- 97
2020-01-16 04:00:00 6.5 18 Sudoeste 26 Sur 0 -- -- 98
2020-01-16 03:00:00 6.6 14 Sur 20 Sur 0 -- -- 98
2020-01-16 02:00:00 6.4 9 Sur 14 Sur 0 -- -- 97
2020-01-16 01:00:00 6.4 10 Sur 17 Sur 0 -- -- 97
2020-01-16 00:00:00 6.4 8 Sur 17 Sudoeste 0 -- -- 97
2020-01-15 23:00:00 6.2 12 Sudoeste 18 Sudoeste 0 -- -- 97
2020-01-15 22:00:00 6.2 10 Sur 15 Sur 0 -- -- 96
2020-01-15 21:00:00 6 8 Sur 13 Sur 0 -- -- 95
2020-01-15 20:00:00 6.1 7 Sur 18 Sudoeste 0 -- -- 93
2020-01-15 19:00:00 7.1 12 Sudoeste 16 Sudoeste 0 -- -- 92
2020-01-15 18:00:00 7.7 12 Sudoeste 26 Sudoeste 0 -- -- 89
2020-01-15 17:00:00 8.2 13 Sudoeste 37 Sudoeste 0 -- -- 86
2020-01-15 16:00:00 8 22 Sudoeste 40 Sudoeste 0 -- -- 85
2020-01-15 15:00:00 8.2 24 Sudoeste 53 Sudoeste 0 -- -- 83
2020-01-15 14:00:00 7.9 20 Sudoeste 41 Oeste 0 -- -- 84
2020-01-15 13:00:00 7.1 29 Sudoeste 52 Sudoeste 0 -- -- 85
2020-01-15 12:00:00 6.7 36 Sudoeste 55 Sudoeste 0 -- -- 88
2020-01-15 11:00:00 5.7 30 Sudoeste 48 Sudoeste 0.2 -- -- 94
2020-01-15 10:00:00 5.4 24 Sudoeste 40 Sudoeste 0 -- -- 94
2020-01-15 09:00:00 5.1 19 Sur 31 Sudoeste 0 -- -- 94
2020-01-15 08:00:00 5 18 Sur 34 Sur 0 -- -- 93
2020-01-15 07:00:00 5 27 Sur 41 Sur 0 -- -- 94
2020-01-15 06:00:00 5.1 27 Sudoeste 45 Sudoeste 0 -- -- 93
2020-01-15 05:00:00 5.3 31 Sudoeste 44 Sudoeste 0 -- -- 93
2020-01-15 04:00:00 5.2 26 Sudoeste 39 Sur 0 -- -- 95
2020-01-15 03:00:00 5.2 30 Sudoeste 50 Sudoeste 0 -- -- 96
2020-01-15 02:00:00 5 25 Sudoeste 41 Sudoeste 0.2 -- -- 97
2020-01-15 01:00:00 4.7 26 Sudoeste 44 Sudoeste 0 -- -- 95
2020-01-15 00:00:00 4.6 27 Sudoeste 45 Sudoeste 0 -- -- 95
2020-01-14 23:00:00 4.5 23 Sudoeste 34 Sudoeste 0 -- -- 93
2020-01-14 22:00:00 4.9 18 Sudoeste 26 Sudoeste 0 -- -- 91
2020-01-14 21:00:00 5.1 20 Sudoeste 32 Sudoeste 0 -- -- 90
2020-01-14 20:00:00 5.4 18 Sudoeste 33 Sudoeste 0 -- -- 89
2020-01-14 19:00:00 5.6 23 Sudoeste 32 Sudoeste 0 -- -- 88
2020-01-14 18:00:00 5.7 15 Sudoeste 32 Sudoeste 0 -- -- 87
2020-01-14 17:00:00 6.1 22 Sudoeste 33 Oeste 0 -- -- 85
2020-01-14 16:00:00 5.9 22 Sudoeste 33 Sudoeste 0 -- -- 87
2020-01-14 15:00:00 5.6 21 Sudoeste 40 Sudoeste 0 -- -- 90
2020-01-14 14:00:00 5.2 19 Sudoeste 27 Sudoeste 0 -- -- 91
2020-01-14 13:00:00 3 15 Sudoeste 22 Sudoeste 0 -- -- 96
2020-01-14 12:00:00 2.2 14 Sudoeste 22 Sudoeste 0 -- -- 98
2020-01-14 11:00:00 1.7 13 Sur 20 Sur 0 -- -- 99
2020-01-14 10:00:00 1.5 12 Sur 26 Sudoeste 0 -- -- 99
2020-01-14 09:00:00 1.6 9 Sudoeste 22 Sudoeste 0 -- -- 100
2020-01-14 08:00:00 1.6 17 Sudoeste 24 Sudoeste 0 -- -- 100
2020-01-14 07:00:00 0.7 3 Norte 5 Norte 0 -- -- 99
2020-01-14 06:00:00 0.5 3 Oeste 5 Oeste 0 -- -- 99
2020-01-14 05:00:00 0.4 0 Calma 6 Sur 0 -- -- 99
2020-01-14 04:00:00 0.3 4 Sudoeste 8 Sudoeste 0 -- -- 99
2020-01-14 03:00:00 0.2 4 Sudoeste 8 Sudoeste 0 -- -- 98
2020-01-14 02:00:00 0.1 2 Sur 6 Sudoeste 0 -- -- 98
2020-01-14 01:00:00 0 7 Sudoeste 13 Sudoeste 0 -- -- 98
2020-01-14 00:00:00 -0.1 7 Sudoeste 11 Sudoeste 0 -- -- 97
2020-01-13 23:00:00 -0.3 5 Sudoeste 7 Sur 0 -- -- 97
2020-01-13 22:00:00 -0.6 4 Noroeste 12 Noroeste 0 -- -- 96
2020-01-13 21:00:00 -0.9 6 Noroeste 12 Oeste 0 -- -- 96
2020-01-13 20:00:00 -1.1 7 Noroeste 15 Noroeste 0 -- -- 94
2020-01-13 19:00:00 -1 11 Oeste 20 Sudoeste 0 -- -- 95
2020-01-13 18:00:00 -1 12 Oeste 31 Sudoeste 0 -- -- 92
2020-01-13 17:00:00 -0.2 16 Sudoeste 24 Sudoeste 0 -- -- 91
2020-01-13 16:00:00 0.2 16 Sudoeste 23 Sudoeste 0 -- -- 89
2020-01-13 15:00:00 0.9 14 Sudoeste 22 Sudoeste 0 -- -- 87
2020-01-13 14:00:00 -0.1 11 Sudoeste 19 Sudoeste 0 -- -- 96
2020-01-13 13:00:00 -1.6 10 Sur 14 Sur 0 -- -- 99
2020-01-13 12:00:00 -2.3 4 Sudeste 6 Sudeste 0 -- -- 99
2020-01-13 11:00:00 -4.2 0 Calma 3 Sur 0 -- -- 98
2020-01-13 10:00:00 -5.2 0 Calma 3 Sur 0 -- -- 97
2020-01-13 09:00:00 -5.4 0 Calma 3 Sur 0 -- -- 97
2020-01-13 08:00:00 -5.4 0 Calma 2 Noroeste 0 -- -- 97
2020-01-13 07:00:00 -5.4 0 Calma 5 Sur 0 -- -- 97
2020-01-13 06:00:00 -5.2 0 Calma 3 Sudoeste 0 -- -- 97
2020-01-13 05:00:00 -5.4 0 Calma 8 Sudeste 0 -- -- 96
2020-01-13 04:00:00 -5.5 5 Sur 8 Sudeste 0 -- -- 94
2020-01-13 03:00:00 -5.3 0 Calma 2 Sur 0 -- -- 94
2020-01-13 02:00:00 -4.4 0 Calma 3 Sur 0 -- -- 94
2020-01-13 01:00:00 -3.5 0 Calma 4 Norte 0 -- -- 94
2020-01-13 00:00:00 -2.7 3 Norte 10 Norte 0 -- -- 94
2020-01-12 23:00:00 -2.9 4 Norte 6 Norte 0 -- -- 97
2020-01-12 22:00:00 -3.3 3 Norte 5 Norte 0 -- -- 97
2020-01-12 21:00:00 -2.8 0 Calma 4 Sur 0 -- -- 96
2020-01-12 20:00:00 -2.3 0 Calma 4 Norte 0 -- -- 95
2020-01-12 19:00:00 -0.7 0 Calma 6 Sur 0 -- -- 90
2020-01-12 18:00:00 2.8 0 Calma 6 Sur 0 -- -- 85
2020-01-12 17:00:00 5.7 6 Sur 11 Sur 0 -- -- 84
2020-01-12 16:00:00 5.5 6 Sur 12 Sur 0 -- -- 88
2020-01-12 15:00:00 3.7 8 Sur 10 Sur 0 -- -- 97
2020-01-12 14:00:00 1.3 7 Sur 10 Sur 0 -- -- 99
2020-01-12 13:00:00 0.1 4 Sur 8 Sudeste 0 -- -- 100
2020-01-12 12:00:00 -2.2 4 Sur 6 Sur 0 -- -- 100
2020-01-12 11:00:00 -4.1 0 Calma 4 Noroeste 0 -- -- 98
2020-01-12 10:00:00 -4.3 0 Calma 5 Noroeste 0 -- -- 98
2020-01-12 09:00:00 -4 0 Calma 5 Noroeste 0 -- -- 98
2020-01-12 08:00:00 -3.4 0 Calma 4 Noroeste 0 -- -- 98
2020-01-12 07:00:00 -3.5 0 Calma 4 Nordeste 0 -- -- 98
2020-01-12 06:00:00 -3.4 0 Calma 4 Oeste 0 -- -- 98
2020-01-12 05:00:00 -3.1 0 Calma 5 Sur 0 -- -- 97
2020-01-12 04:00:00 -3.3 0 Calma 6 Sudeste 0 -- -- 97
2020-01-12 03:00:00 -4 4 Sudeste 8 Sur 0 -- -- 95
2020-01-12 02:00:00 -3.8 0 Calma 3 Nordeste 0 -- -- 95
2020-01-12 01:00:00 -3.2 0 Calma 6 Nordeste 0 -- -- 95
2020-01-12 00:00:00 -2.8 3 Este 8 Nordeste 0 -- -- 95
2020-01-11 23:00:00 -2.3 0 Calma 8 Norte 0 -- -- 94
2020-01-11 22:00:00 -2.2 3 Norte 5 Norte 0 -- -- 95
2020-01-11 21:00:00 -0.9 0 Calma 5 Noroeste 0 -- -- 93
2020-01-11 20:00:00 -0.1 3 Noroeste 6 Noroeste 0 -- -- 91
2020-01-11 19:00:00 1.9 0 Calma 6 Sudoeste 0 -- -- 84
2020-01-11 18:00:00 6.5 5 Oeste 14 Sudoeste 0 -- -- 69
2020-01-11 17:00:00 7.7 10 Sudoeste 15 Sudoeste 0 -- -- 67
2020-01-11 16:00:00 8.3 7 Oeste 14 Oeste 0 -- -- 65
2020-01-11 15:00:00 7.7 6 Sudoeste 15 Oeste 0 -- -- 70
2020-01-11 14:00:00 6.1 8 Oeste 12 Oeste 0 -- -- 77
2020-01-11 13:00:00 3.7 3 Oeste 7 Oeste 0 -- -- 85
2020-01-11 12:00:00 1.3 3 Noroeste 11 Noroeste 0 -- -- 91
2020-01-11 11:00:00 -1.4 5 Noroeste 8 Noroeste 0 -- -- 95
2020-01-11 10:00:00 -3.5 4 Norte 13 Norte 0 -- -- 95
2020-01-11 09:00:00 -4.3 3 Norte 8 Norte 0 -- -- 94
2020-01-11 08:00:00 -4 4 Norte 15 Noroeste 0 -- -- 94
2020-01-11 07:00:00 -3.7 5 Norte 12 Nordeste 0 -- -- 95
2020-01-11 06:00:00 -3.5 4 Norte 12 Norte 0 -- -- 95
2020-01-11 05:00:00 -3.2 4 Norte 8 Norte 0 -- -- 95
2020-01-11 04:00:00 -2.5 5 Norte 15 Noroeste 0 -- -- 96
2020-01-11 03:00:00 -2.7 10 Norte 17 Noroeste 0 -- -- 95
2020-01-11 02:00:00 -2.4 6 Norte 12 Norte 0 -- -- 95
2020-01-11 01:00:00 -2 5 Norte 12 Norte 0 -- -- 95
2020-01-11 00:00:00 -1.3 6 Norte 12 Norte 0 -- -- 94
2020-01-10 23:00:00 -0.8 3 Nordeste 10 Sudeste 0 -- -- 94
2020-01-10 22:00:00 0.5 6 Norte 10 Norte 0 -- -- 94
2020-01-10 21:00:00 1.6 0 Calma 25 Este 0 -- -- 88
2020-01-10 20:00:00 1.9 8 Nordeste 14 Nordeste 0 -- -- 88
2020-01-10 19:00:00 2.7 0 Calma 11 Este 0 -- -- 82
2020-01-10 18:00:00 5 3 Este 18 Nordeste 0 -- -- 73
2020-01-10 17:00:00 6.6 11 Nordeste 25 Este 0 -- -- 66
2020-01-10 16:00:00 6.5 10 Norte 24 Nordeste 0 -- -- 66
2020-01-10 15:00:00 7.1 8 Nordeste 15 Nordeste 0 -- -- 65
2020-01-10 14:00:00 4.9 2 Nordeste 9 Noroeste 0 -- -- 74
2020-01-10 13:00:00 3.1 4 Noroeste 7 Oeste 0 -- -- 98
2020-01-10 12:00:00 0.8 5 Noroeste 9 Noroeste 0 -- -- 100
2020-01-10 11:00:00 -0.6 4 Norte 10 Norte 0 -- -- 99
2020-01-10 10:00:00 -1.3 2 Norte 6 Este 0 -- -- 98
2020-01-10 09:00:00 -2 4 Nordeste 8 Sudeste 0 -- -- 97
2020-01-10 08:00:00 -2 0 Calma 5 Norte 0 -- -- 91
2020-01-10 07:00:00 -1.1 3 Norte 10 Nordeste 0 -- -- 90
2020-01-10 06:00:00 1.2 6 Norte 20 Noroeste 0 -- -- 80
2020-01-10 05:00:00 1.7 5 Oeste 21 Noroeste 0 -- -- 79
2020-01-10 04:00:00 1.9 14 Noroeste 23 Oeste 0 -- -- 79
2020-01-10 03:00:00 1.4 5 Noroeste 20 Noroeste 0 -- -- 81
2020-01-10 02:00:00 2.3 15 Noroeste 24 Noroeste 0 -- -- 78
2020-01-10 01:00:00 1.5 3 Norte 18 Norte 0 -- -- 83
2020-01-10 00:00:00 1.6 6 Norte 17 Nordeste 0 -- -- 88
2020-01-09 23:00:00 1.9 7 Nordeste 33 Oeste 0 -- -- 88
2020-01-09 22:00:00 2.1 4 Noroeste 15 Oeste 0 -- -- 91
2020-01-09 21:00:00 3.6 4 Noroeste 19 Oeste 0 -- -- 87
2020-01-09 20:00:00 4.7 10 Oeste 15 Oeste 0 -- -- 93
2020-01-09 19:00:00 5.2 7 Este 11 Este 0 -- -- 97
2020-01-09 18:00:00 5.1 8 Sur 10 Sur 0 -- -- 97
2020-01-09 17:00:00 4.7 4 Este 13 Sudoeste 0 -- -- 97
2020-01-09 16:00:00 5.1 8 Sudoeste 23 Sur 0 -- -- 92
2020-01-09 15:00:00 7.3 17 Sur 22 Sur 0 -- -- 79
2020-01-09 14:00:00 8 14 Sudoeste 23 Sur 0 -- -- 78
2020-01-09 13:00:00 6.8 14 Sudoeste 19 Sudoeste 0 -- -- 82
2020-01-09 12:00:00 4.6 14 Sur 18 Sur 0 -- -- 89
2020-01-09 11:00:00 1.7 3 Sudoeste 11 Sudeste 0 -- -- 97
2020-01-09 10:00:00 -0.5 3 Sudeste 8 Sudeste 0 -- -- 97
2020-01-09 09:00:00 -1.3 3 Sur 8 Este 0 -- -- 97
2020-01-09 08:00:00 -1.6 4 Norte 9 Norte 0 -- -- 98
2020-01-09 07:00:00 -2 0 Calma 7 Este 0 -- -- 97
2020-01-09 06:00:00 -1.7 3 Norte 6 Noroeste 0 -- -- 97
2020-01-09 05:00:00 -1.8 0 Calma 4 Norte 0 -- -- 96
2020-01-09 04:00:00 -1.5 0 Calma 2 Norte 0 -- -- 96
2020-01-09 03:00:00 -1.1 0 Calma 5 Nordeste 0 -- -- 95
2020-01-09 02:00:00 -0.2 0 Calma 3 Noroeste 0 -- -- 94
2020-01-09 01:00:00 0.6 0 Calma 2 Noroeste 0 -- -- 92
2020-01-09 00:00:00 1.6 0 Calma 5 Norte 0 -- -- 90
2020-01-08 23:00:00 1.7 4 Norte 9 Norte 0 -- -- 88
2020-01-08 22:00:00 2.5 0 Calma 11 Nordeste 0 -- -- 85
2020-01-08 21:00:00 3 0 Calma 2 Norte 0 -- -- 87
2020-01-08 20:00:00 4 0 Calma 3 Sur 0 -- -- 82
2020-01-08 19:00:00 6.7 3 Sudeste 9 Sudeste 0 -- -- 74
2020-01-08 18:00:00 11.1 6 Sudeste 8 Sur 0 -- -- 58
2020-01-08 17:00:00 14.1 0 Calma 4 Noroeste 0 -- -- 50
2020-01-08 16:00:00 14 3 Noroeste 7 Oeste 0 -- -- 40
2020-01-08 15:00:00 13.7 5 Noroeste 9 Oeste 0 -- -- 38
2020-01-08 14:00:00 11.8 3 Noroeste 7 Noroeste 0 -- -- 45
2020-01-08 13:00:00 8.8 2 Noroeste 8 Noroeste 0 -- -- 59
2020-01-08 12:00:00 5.3 2 Noroeste 11 Norte 0 -- -- 77
2020-01-08 11:00:00 3.1 8 Norte 14 Noroeste 0 -- -- 83
2020-01-08 10:00:00 0.5 4 Norte 13 Noroeste 0 -- -- 91
2020-01-08 09:00:00 -1.3 4 Norte 14 Norte 0 -- -- 93
2020-01-08 08:00:00 -1.5 5 Norte 10 Noroeste 0 -- -- 93
2020-01-08 07:00:00 -1.4 4 Norte 8 Norte 0 -- -- 92
2020-01-08 06:00:00 -1.2 4 Norte 9 Norte 0 -- -- 93
2020-01-08 05:00:00 -1.9 3 Norte 8 Norte 0 -- -- 96
2020-01-08 04:00:00 -2.5 0 Calma 6 Norte 0 -- -- 97
2020-01-08 03:00:00 -2.5 2 Norte 7 Norte 0 -- -- 97
2020-01-08 02:00:00 -2.2 0 Calma 7 Norte 0 -- -- 97
2020-01-08 01:00:00 -2.6 2 Norte 5 Noroeste 0 -- -- 98
2020-01-08 00:00:00 -2.4 0 Calma 0 Calma 0 -- -- 98
2020-01-07 23:00:00 -2 0 Calma 3 Norte 0 -- -- 98
2020-01-07 22:00:00 -1.8 0 Calma 4 Sudeste 0 -- -- 97
2020-01-07 21:00:00 -1.6 0 Calma 3 Sudeste 0 -- -- 96
2020-01-07 20:00:00 -0.4 0 Calma 8 Sudeste 0 -- -- 92
2020-01-07 19:00:00 2.6 5 Sudeste 9 Sudeste 0 -- -- 87
2020-01-07 18:00:00 5.9 5 Sudeste 10 Sudeste 0 -- -- 79
2020-01-07 17:00:00 8.4 7 Sudeste 12 Sur 0 -- -- 75
2020-01-07 16:00:00 8.3 6 Sur 13 Sur 0 -- -- 78
2020-01-07 15:00:00 7.6 10 Sur 15 Sur 0 -- -- 79
2020-01-07 14:00:00 6.2 10 Sur 14 Sur 0 -- -- 84
2020-01-07 13:00:00 4.3 9 Sur 14 Sur 0 -- -- 86
2020-01-07 12:00:00 1.6 4 Sur 6 Sudoeste 0 -- -- 94
2020-01-07 11:00:00 -1.2 3 Norte 6 Noroeste 0 -- -- 97
2020-01-07 10:00:00 -3.4 2 Noroeste 8 Nordeste 0 -- -- 96
2020-01-07 09:00:00 -4.4 3 Norte 9 Norte 0 -- -- 96
2020-01-07 08:00:00 -3.9 4 Norte 8 Nordeste 0 -- -- 96
2020-01-07 07:00:00 -3.8 0 Calma 7 Noroeste 0 -- -- 95
2020-01-07 06:00:00 -2.8 5 Norte 12 Noroeste 0 -- -- 96
2020-01-07 05:00:00 -2.9 3 Norte 14 Noroeste 0 -- -- 97
2020-01-07 04:00:00 -2.4 5 Norte 10 Norte 0 -- -- 98
2020-01-07 03:00:00 -2.6 4 Norte 10 Noroeste 0 -- -- 98
2020-01-07 02:00:00 -3.3 4 Norte 8 Norte 0 -- -- 99
2020-01-07 01:00:00 -3.4 2 Nordeste 4 Nordeste 0 -- -- 98
2020-01-07 00:00:00 -2.8 0 Calma 4 Nordeste 0 -- -- 99
2020-01-06 23:00:00 -2.3 0 Calma 5 Norte 0 -- -- 99
2020-01-06 22:00:00 -1.9 4 Norte 9 Nordeste 0 -- -- 99
2020-01-06 21:00:00 -1.4 4 Norte 8 Nordeste 0 -- -- 98
2020-01-06 20:00:00 -1 0 Calma 6 Nordeste 0 -- -- 98
2020-01-06 19:00:00 -0.6 4 Norte 9 Nordeste 0 -- -- 97
2020-01-06 18:00:00 0.1 2 Oeste 10 Sur 0 -- -- 94
2020-01-06 17:00:00 0.9 6 Sur 14 Sudoeste 0 -- -- 93
2020-01-06 16:00:00 1.5 8 Sur 14 Sudeste 0 -- -- 93
2020-01-06 15:00:00 1.1 4 Sur 9 Sudoeste 0 -- -- 95
2020-01-06 14:00:00 0 4 Sudeste 8 Sur 0 -- -- 97
2020-01-06 13:00:00 -1.1 3 Sudeste 5 Sudeste 0 -- -- 98
2020-01-06 12:00:00 -2.8 0 Calma 4 Sudeste 0 -- -- 99
2020-01-06 11:00:00 -4.1 0 Calma 4 Oeste 0 -- -- 98
2020-01-06 10:00:00 -3.9 0 Calma 2 Sudoeste 0 -- -- 97